N4WT SADF-SAAR
Flight info
| Callsign | N4WT |
|---|---|
| Flight time | N/A |
| Altitude | 20000 |
| Route | ATOVO W5 ESKON IMDADXRNP/02 |
| Aircraft | TBM9/L-SDFGRWY/S |
Departure
| Time | N/A |
|---|---|
| Airport | San Fernando Airport (SADF) |
Arrival
| Time | 2026-05-03 20:26 |
|---|---|
| Airport | Rosario Islas Malvinas International Airport (SAAR) |
| Time | Latitude | Longitude | Altitude | Speed | Heading |
|---|---|---|---|---|---|
| 2026-05-03 20:15 | -33.29858 | -60.35069 | 10535 ft | 282 kts | 303° |
| 2026-05-03 20:15 | -33.28798 | -60.37034 | 10134 ft | 281 kts | 303° |
| 2026-05-03 20:15 | -33.27742 | -60.38994 | 9717 ft | 280 kts | 303° |
| 2026-05-03 20:15 | -33.26691 | -60.40939 | 9308 ft | 277 kts | 304° |
| 2026-05-03 20:16 | -33.25655 | -60.42866 | 8916 ft | 274 kts | 304° |
| 2026-05-03 20:16 | -33.24623 | -60.44771 | 8531 ft | 272 kts | 304° |
| 2026-05-03 20:16 | -33.23597 | -60.46663 | 8146 ft | 271 kts | 304° |
| 2026-05-03 20:16 | -33.22578 | -60.48553 | 7760 ft | 270 kts | 304° |
| 2026-05-03 20:17 | -33.21574 | -60.50409 | 7387 ft | 268 kts | 304° |
| 2026-05-03 20:17 | -33.20564 | -60.52278 | 7004 ft | 267 kts | 304° |
| 2026-05-03 20:17 | -33.19560 | -60.54135 | 6630 ft | 265 kts | 305° |
| 2026-05-03 20:17 | -33.18557 | -60.55979 | 6241 ft | 264 kts | 305° |
| 2026-05-03 20:18 | -33.17562 | -60.57814 | 5865 ft | 262 kts | 305° |
| 2026-05-03 20:18 | -33.16579 | -60.59639 | 5516 ft | 260 kts | 305° |
| 2026-05-03 20:18 | -33.15592 | -60.61453 | 5150 ft | 261 kts | 306° |
| 2026-05-03 20:18 | -33.14601 | -60.63272 | 4777 ft | 261 kts | 306° |
| 2026-05-03 20:19 | -33.13613 | -60.65096 | 4388 ft | 261 kts | 306° |
| 2026-05-03 20:19 | -33.12627 | -60.66893 | 4130 ft | 258 kts | 306° |
| 2026-05-03 20:19 | -33.11640 | -60.68670 | 3746 ft | 254 kts | 306° |
| 2026-05-03 20:19 | -33.10727 | -60.70379 | 3357 ft | 243 kts | 306° |
| 2026-05-03 20:20 | -33.09849 | -60.72075 | 2964 ft | 238 kts | 302° |
| 2026-05-03 20:20 | -33.09239 | -60.73887 | 2771 ft | 231 kts | 295° |
| 2026-05-03 20:20 | -33.08652 | -60.75639 | 2599 ft | 226 kts | 297° |
| 2026-05-03 20:20 | -33.08034 | -60.77345 | 2409 ft | 222 kts | 300° |
| 2026-05-03 20:21 | -33.07177 | -60.78848 | 2237 ft | 218 kts | 316° |
| 2026-05-03 20:21 | -33.06042 | -60.80019 | 2062 ft | 215 kts | 330° |
| 2026-05-03 20:21 | -33.04722 | -60.80787 | 2029 ft | 205 kts | 343° |
| 2026-05-03 20:21 | -33.03412 | -60.81128 | 2010 ft | 174 kts | 356° |
| 2026-05-03 20:22 | -33.02337 | -60.81138 | 1988 ft | 137 kts | 6° |
| 2026-05-03 20:22 | -33.01507 | -60.80985 | 1975 ft | 106 kts | 12° |
| 2026-05-03 20:22 | -33.00826 | -60.80838 | 1891 ft | 97 kts | 11° |
| 2026-05-03 20:22 | -33.00187 | -60.80700 | 1790 ft | 91 kts | 11° |
| 2026-05-03 20:23 | -32.99570 | -60.80561 | 1666 ft | 90 kts | 11° |
| 2026-05-03 20:23 | -32.98973 | -60.80426 | 1540 ft | 87 kts | 11° |
| 2026-05-03 20:23 | -32.98385 | -60.80295 | 1420 ft | 87 kts | 11° |
| 2026-05-03 20:23 | -32.97794 | -60.80158 | 1304 ft | 86 kts | 11° |
| 2026-05-03 20:24 | -32.97189 | -60.80013 | 1179 ft | 90 kts | 11° |
| 2026-05-03 20:24 | -32.96566 | -60.79869 | 1041 ft | 92 kts | 10° |
| 2026-05-03 20:24 | -32.95932 | -60.79741 | 925 ft | 93 kts | 12° |
| 2026-05-03 20:24 | -32.95347 | -60.79598 | 796 ft | 79 kts | 14° |
| 2026-05-03 20:25 | -32.94811 | -60.79478 | 700 ft | 78 kts | 14° |
| 2026-05-03 20:25 | -32.94283 | -60.79365 | 611 ft | 75 kts | 15° |
| 2026-05-03 20:25 | -32.93752 | -60.79241 | 518 ft | 80 kts | 16° |
| 2026-05-03 20:25 | -32.93231 | -60.79110 | 387 ft | 71 kts | 17° |
| 2026-05-03 20:26 | -32.92708 | -60.78999 | 309 ft | 81 kts | 14° |
| 2026-05-03 20:26 | -32.92163 | -60.78876 | 205 ft | 79 kts | 14° |
| 2026-05-03 20:26 | -32.91639 | -60.78760 | 101 ft | 71 kts | 16° |
| 2026-05-03 20:26 | -32.91240 | -60.78670 | 94 ft | 46 kts | 14° |
| 2026-05-03 20:27 | -32.91068 | -60.78626 | 95 ft | 17 kts | 8° |
| 2026-05-03 20:27 | -32.90969 | -60.78559 | 95 ft | 16 kts | 104° |
| 2026-05-03 20:27 | -32.91071 | -60.78487 | 91 ft | 19 kts | 132° |
| 2026-05-03 20:27 | -32.91184 | -60.78387 | 93 ft | 22 kts | 137° |
| 2026-05-03 20:28 | -32.91315 | -60.78266 | 92 ft | 26 kts | 137° |
| 2026-05-03 20:28 | -32.91425 | -60.78096 | 90 ft | 27 kts | 115° |
| 2026-05-03 20:28 | -32.91443 | -60.78042 | 90 ft | 0 kts | 112° |